Time;durP1;ratioP1;P1;durP2;ratioP2;P2;SDS_P1;SDS_P2;PMS_P1;PMS_P2;Temp;Humidity;BMP_temperature;BMP_pressure;BME280_temperature;BME280_humidity;BME280_pressure;Samples;Min_cycle;Max_cycle;Signal;HPM_P1;HPM_P2
2021/11/02 00:02:23;;;;;;;5.25;4.53;;;9.60;99.90;;;;;;7383919;19;20348;-79
2021/11/02 00:04:49;;;;;;;4.90;4.40;;;9.50;99.90;;;;;;7382468;19;20428;-80
2021/11/02 00:07:15;;;;;;;5.13;4.63;;;9.50;99.90;;;;;;7387204;19;20339;-81
2021/11/02 00:09:42;;;;;;;5.50;5.00;;;9.50;99.90;;;;;;7383673;19;20353;-82
2021/11/02 00:12:10;;;;;;;6.88;6.20;;;9.50;99.90;;;;;;7384065;19;21228;-77
2021/11/02 00:14:35;;;;;;;4.72;4.25;;;9.50;99.90;;;;;;7383493;19;20325;-80
2021/11/02 00:17:09;;;;;;;4.90;4.50;;;9.40;99.90;;;;;;7381966;19;20337;-80
2021/11/02 00:19:35;;;;;;;5.45;4.75;;;9.40;99.90;;;;;;7383157;19;20623;-78
2021/11/02 00:22:35;;;;;;;4.20;3.80;;;9.50;99.90;;;;;;7384569;19;21021;-78
2021/11/02 00:25:05;;;;;;;6.28;4.88;;;9.50;99.90;;;;;;7280232;19;2004400;-80
2021/11/02 00:27:39;;;;;;;4.93;4.43;;;9.60;99.90;;;;;;7391889;19;20396;-78
2021/11/02 00:30:10;;;;;;;4.70;4.30;;;9.50;99.90;;;;;;7387540;19;21013;-79
2021/11/02 00:32:37;;;;;;;5.03;4.53;;;9.50;99.90;;;;;;7390058;19;20682;-79
2021/11/02 00:35:04;;;;;;;5.25;4.72;;;9.60;99.90;;;;;;7392643;19;20305;-79
2021/11/02 00:37:30;;;;;;;6.13;5.03;;;9.50;99.90;;;;;;7389087;19;20380;-78
2021/11/02 00:39:56;;;;;;;6.93;6.17;;;9.50;99.90;;;;;;7391382;19;20354;-78
2021/11/02 00:42:31;;;;;;;5.80;4.40;;;9.50;99.90;;;;;;7392478;19;20403;-77
2021/11/02 00:44:59;;;;;;;4.85;4.18;;;9.50;99.90;;;;;;7388747;19;20661;-78
2021/11/02 00:47:26;;;;;;;4.70;4.28;;;9.50;99.90;;;;;;7390836;19;20320;-81
2021/11/02 00:49:52;;;;;;;6.38;4.75;;;9.50;99.90;;;;;;7386700;19;20664;-78
2021/11/02 00:52:18;;;;;;;5.55;4.97;;;9.50;99.90;;;;;;7386586;19;20396;-79
2021/11/02 00:54:45;;;;;;;4.45;3.95;;;9.40;99.90;;;;;;7387535;19;20430;-79
2021/11/02 00:57:10;;;;;;;4.10;3.63;;;9.40;99.90;;;;;;7387932;19;20309;-78
2021/11/02 00:59:36;;;;;;;4.80;4.00;;;9.40;99.90;;;;;;7386731;19;20362;-79
2021/11/02 01:02:08;;;;;;;4.80;4.40;;;9.40;99.90;;;;;;7387425;19;20319;-77
2021/11/02 01:04:34;;;;;;;4.10;3.70;;;9.40;99.90;;;;;;7388813;19;20309;-77
2021/11/02 01:07:00;;;;;;;4.60;4.00;;;9.40;99.90;;;;;;7387761;19;20352;-78
2021/11/02 01:09:25;;;;;;;4.40;3.60;;;9.60;99.90;;;;;;7388096;19;20678;-80
2021/11/02 01:11:51;;;;;;;4.75;3.90;;;9.40;99.90;;;;;;7386889;19;20320;-78
2021/11/02 01:14:17;;;;;;;3.83;3.47;;;9.40;99.90;;;;;;7390833;19;20348;-79
2021/11/02 01:16:44;;;;;;;3.90;3.53;;;9.40;99.90;;;;;;7391451;19;20332;-78
2021/11/02 01:19:12;;;;;;;4.83;4.07;;;9.40;99.90;;;;;;7389675;19;20393;-78
2021/11/02 01:21:38;;;;;;;4.15;3.80;;;9.40;99.90;;;;;;7369148;19;20345;-79
2021/11/02 01:24:05;;;;;;;4.15;3.75;;;9.40;99.90;;;;;;7385824;19;20888;-79
2021/11/02 01:26:31;;;;;;;4.10;3.75;;;9.40;99.90;;;;;;7387298;19;20309;-78
2021/11/02 01:28:57;;;;;;;4.50;4.10;;;9.40;99.90;;;;;;7386587;19;20352;-79
2021/11/02 01:31:24;;;;;;;4.07;3.67;;;9.40;99.90;;;;;;7388612;19;20899;-80
2021/11/02 01:33:50;;;;;;;3.63;3.33;;;9.30;99.90;;;;;;7387567;19;20313;-79
2021/11/02 01:36:16;;;;;;;3.67;3.37;;;9.40;99.90;;;;;;7387730;19;21390;-79
2021/11/02 01:38:45;;;;;;;3.97;3.58;;;9.40;99.90;;;;;;7387954;19;20320;-80
2021/11/02 01:41:15;;;;;;;3.42;3.13;;;9.40;99.90;;;;;;7387792;19;20312;-84
2021/11/02 01:43:41;;;;;;;4.95;3.13;;;9.40;99.90;;;;;;7399866;19;20391;-79
2021/11/02 01:46:26;;;;;;;3.60;3.20;;;9.50;99.90;;;;;;7393089;19;20312;-83
2021/11/02 01:48:53;;;;;;;3.60;3.17;;;9.60;99.90;;;;;;7388556;19;20305;-79
2021/11/02 01:51:21;;;;;;;4.20;3.80;;;9.50;99.90;;;;;;7388743;19;20872;-79
2021/11/02 01:53:47;;;;;;;3.97;3.58;;;9.50;99.90;;;;;;7386879;19;20502;-79
2021/11/02 01:56:13;;;;;;;5.38;4.85;;;9.40;99.90;;;;;;7386088;19;20955;-79
2021/11/02 01:58:43;;;;;;;4.53;4.13;;;9.40;99.90;;;;;;7386635;19;20313;-79
2021/11/02 02:01:10;;;;;;;4.30;3.90;;;9.40;99.90;;;;;;7383466;19;20384;-79
2021/11/02 02:03:46;;;;;;;4.65;4.13;;;9.30;99.90;;;;;;7383862;19;20666;-79
2021/11/02 02:06:43;;;;;;;5.13;3.85;;;9.30;99.90;;;;;;7384551;19;20877;-79
2021/11/02 02:09:16;;;;;;;5.63;4.43;;;9.30;99.90;;;;;;7285127;19;2009392;-78
2021/11/02 02:12:04;;;;;;;3.80;3.50;;;9.40;99.90;;;;;;7283747;19;2004756;-79
2021/11/02 02:14:53;;;;;;;4.05;3.75;;;9.50;99.90;;;;;;7279083;19;2010532;-79
2021/11/02 02:17:39;;;;;;;4.88;3.88;;;9.50;99.90;;;;;;7384685;19;20300;-79
2021/11/02 02:20:09;;;;;;;5.27;4.03;;;9.60;99.90;;;;;;7383943;19;20332;-79
2021/11/02 02:23:11;;;;;;;5.18;4.70;;;9.50;99.90;;;;;;7384592;19;20289;-80
2021/11/02 02:25:53;;;;;;;6.60;4.73;;;9.40;99.90;;;;;;7280505;19;2010643;-78
2021/11/02 02:28:26;;;;;;;5.53;5.03;;;9.40;99.90;;;;;;7382156;19;20316;-79
2021/11/02 02:30:57;;;;;;;5.35;4.78;;;9.40;99.90;;;;;;7383997;19;20347;-80
2021/11/02 02:33:26;;;;;;;4.90;4.47;;;9.30;99.90;;;;;;7381824;19;20320;-78
2021/11/02 02:35:52;;;;;;;5.47;4.47;;;9.40;99.90;;;;;;7382199;19;20343;-79
2021/11/02 02:38:19;;;;;;;6.40;4.40;;;9.20;99.90;;;;;;7382422;19;20309;-80
2021/11/02 02:40:46;;;;;;;4.55;3.75;;;9.30;99.90;;;;;;7382912;19;20326;-80
2021/11/02 02:43:12;;;;;;;4.18;3.78;;;9.20;99.90;;;;;;7381761;19;20376;-78
2021/11/02 02:45:41;;;;;;;5.43;4.70;;;9.30;99.90;;;;;;7383425;19;20337;-78
2021/11/02 02:48:07;;;;;;;5.00;4.50;;;9.30;99.90;;;;;;7384099;19;20400;-79
2021/11/02 02:50:33;;;;;;;5.45;4.07;;;9.30;99.90;;;;;;7383556;19;20300;-79
2021/11/02 02:52:58;;;;;;;5.13;3.78;;;9.20;99.90;;;;;;7381028;19;20327;-79
2021/11/02 02:55:24;;;;;;;3.47;3.17;;;9.10;99.90;;;;;;7385236;19;20305;-79
2021/11/02 02:57:54;;;;;;;3.60;3.30;;;9.10;99.90;;;;;;7389202;19;21239;-80
2021/11/02 03:00:19;;;;;;;5.67;3.50;;;9.10;99.90;;;;;;7383589;19;20337;-78
2021/11/02 03:02:45;;;;;;;6.32;3.00;;;9.10;99.90;;;;;;7383804;19;20335;-77
2021/11/02 03:05:14;;;;;;;4.22;3.15;;;9.10;99.90;;;;;;7383154;19;20317;-79
2021/11/02 03:07:41;;;;;;;3.47;2.78;;;9.10;99.90;;;;;;7382272;19;20321;-79
2021/11/02 03:10:07;;;;;;;4.22;3.10;;;9.10;99.90;;;;;;7381944;19;20344;-79
2021/11/02 03:12:36;;;;;;;5.32;3.80;;;9.10;99.90;;;;;;7381465;19;20311;-79
2021/11/02 03:18:21;;;;;;;2.97;2.72;;;9.00;99.90;;;;;;7386421;19;20329;-79
2021/11/02 03:48:33;;;;;;;1.17;1.17;;;9.10;99.90;;;;;;7383795;19;20324;-80
2021/11/02 03:57:01;;;;;;;2.30;1.42;;;9.20;99.90;;;;;;7381522;19;20680;-78
2021/11/02 04:35:21;;;;;;;1.60;1.50;;;9.20;99.90;;;;;;7386468;19;20792;-79
2021/11/02 04:42:09;;;;;;;1.70;1.60;;;9.30;99.90;;;;;;7283791;19;2009144;-79
2021/11/02 04:44:14;;;;;;;1.42;1.40;;;9.20;99.90;;;;;;7386776;19;20679;-79
2021/11/02 05:12:09;;;;;;;0.93;0.93;;;8.80;99.90;;;;;;7283753;19;2008644;-79
2021/11/02 05:46:42;;;;;;;1.50;1.00;;;8.80;99.90;;;;;;7320163;19;20304;-80
2021/11/02 05:58:42;;;;;;;0.90;0.90;;;8.80;99.90;;;;;;7284281;19;2004487;-77
2021/11/02 06:06:31;;;;;;;0.83;0.83;;;8.80;99.90;;;;;;7386366;19;20420;-79
2021/11/02 06:27:54;;;;;;;1.02;1.02;;;8.80;99.90;;;;;;7159089;19;2005466;-77
2021/11/02 06:31:04;;;;;;;3.10;2.83;;;8.70;99.90;;;;;;7253497;19;2004453;-77
2021/11/02 06:33:50;;;;;;;2.55;2.35;;;8.80;99.90;;;;;;7376256;19;20975;-77
2021/11/02 06:46:00;;;;;;;1.20;1.20;;;9.00;99.90;;;;;;7387504;19;20320;-78
2021/11/02 07:15:23;;;;;;;2.72;2.50;;;9.00;99.90;;;;;;7282070;19;2004457;-78
2021/11/02 07:17:04;;;;;;;2.05;1.95;;;9.10;99.90;;;;;;7385072;19;20317;-78
2021/11/02 07:19:40;;;;;;;1.90;1.80;;;9.10;99.90;;;;;;7283555;19;2004268;-78
2021/11/02 07:22:55;;;;;;;2.33;2.13;;;9.10;99.90;;;;;;7283709;19;2004415;-78
2021/11/02 08:49:02;;;;;;;3.97;2.17;;;9.80;99.90;;;;;;7390949;19;20864;-80
2021/11/02 08:51:28;;;;;;;2.58;2.38;;;9.70;99.90;;;;;;7390969;19;20328;-79
2021/11/02 08:53:54;;;;;;;2.47;2.28;;;9.70;99.90;;;;;;7391892;19;20297;-80
2021/11/02 08:56:22;;;;;;;2.58;2.38;;;9.70;99.90;;;;;;7390857;19;20327;-80
2021/11/02 08:58:49;;;;;;;2.72;2.13;;;9.70;99.90;;;;;;7391301;19;20673;-80
2021/11/02 09:01:17;;;;;;;2.05;1.95;;;9.60;99.90;;;;;;7390976;19;20714;-79
2021/11/02 09:03:47;;;;;;;3.30;3.05;;;9.50;99.90;;;;;;7390023;19;20316;-80
2021/11/02 09:06:15;;;;;;;2.20;2.10;;;9.70;99.90;;;;;;7389570;19;20316;-80
2021/11/02 09:08:45;;;;;;;2.60;2.40;;;9.90;99.90;;;;;;7391990;19;20326;-80
2021/11/02 09:11:14;;;;;;;3.07;2.77;;;9.80;99.90;;;;;;7390991;19;20322;-80
2021/11/02 09:13:48;;;;;;;2.60;2.40;;;9.80;99.90;;;;;;7391891;19;20848;-79
2021/11/02 09:16:15;;;;;;;2.33;2.13;;;9.90;99.90;;;;;;7388963;19;20351;-80
2021/11/02 09:18:44;;;;;;;2.75;2.55;;;9.90;99.90;;;;;;7392414;19;20376;-78
2021/11/02 09:21:10;;;;;;;3.40;3.20;;;9.90;99.90;;;;;;7396438;19;20320;-77
2021/11/02 09:23:36;;;;;;;2.55;2.35;;;9.90;99.90;;;;;;7394116;19;20344;-77
2021/11/02 09:26:02;;;;;;;2.53;2.27;;;10.00;99.90;;;;;;7372439;19;20301;-78
2021/11/02 09:28:28;;;;;;;4.37;3.37;;;10.00;99.90;;;;;;7392768;19;20312;-79
2021/11/02 09:30:54;;;;;;;2.50;2.30;;;10.10;99.90;;;;;;7389396;19;20382;-80
2021/11/02 09:33:21;;;;;;;2.47;2.00;;;10.20;99.90;;;;;;7387242;19;20300;-80
2021/11/02 09:36:07;;;;;;;2.15;2.05;;;10.30;99.90;;;;;;7387328;19;20336;-79
2021/11/02 09:38:48;;;;;;;1.95;1.85;;;10.40;99.90;;;;;;7289247;19;2004508;-80
2021/11/02 09:41:34;;;;;;;2.20;2.00;;;10.50;99.90;;;;;;7294498;19;2007015;-79
2021/11/02 09:44:28;;;;;;;3.97;3.20;;;10.60;99.90;;;;;;7282011;19;2010786;-78
2021/11/02 09:47:41;;;;;;;2.03;1.92;;;10.70;99.90;;;;;;7285364;19;2009879;-81
2021/11/02 09:50:27;;;;;;;2.00;1.90;;;10.70;99.90;;;;;;7178630;19;2009481;-78
2021/11/02 09:53:04;;;;;;;1.75;1.65;;;10.80;99.90;;;;;;7281247;19;2011183;-78
2021/11/02 09:56:26;;;;;;;2.13;2.00;;;10.90;99.90;;;;;;7358904;19;20329;-78
2021/11/02 09:59:36;;;;;;;3.35;3.05;;;10.90;99.90;;;;;;7174890;19;2004587;-77
2021/11/02 10:02:29;;;;;;;1.45;1.35;;;10.80;99.90;;;;;;7280677;19;2016026;-77
2021/11/02 10:05:16;;;;;;;1.60;1.50;;;10.70;99.90;;;;;;7281672;19;2011500;-79
2021/11/02 10:08:12;;;;;;;1.77;1.60;;;10.60;99.90;;;;;;7384092;19;20356;-77
2021/11/02 10:11:16;;;;;;;1.95;1.58;;;10.60;99.90;;;;;;7284320;19;2004443;-78
2021/11/02 10:14:14;;;;;;;1.60;1.50;;;10.70;99.90;;;;;;7182410;19;2011531;-78
2021/11/02 10:17:08;;;;;;;1.80;1.70;;;10.80;99.90;;;;;;7283029;19;2004502;-77
2021/11/02 10:20:02;;;;;;;2.58;2.38;;;10.80;99.90;;;;;;7284355;19;2010417;-79
2021/11/02 10:22:46;;;;;;;2.50;1.90;;;10.80;99.90;;;;;;7280722;19;2008600;-80
2021/11/02 10:25:22;;;;;;;2.23;1.90;;;10.80;99.90;;;;;;7386119;19;20328;-78
2021/11/02 10:27:59;;;;;;;4.80;2.30;;;10.90;99.90;;;;;;7384712;19;21271;-79
2021/11/02 10:30:51;;;;;;;2.25;2.08;;;10.90;99.90;;;;;;7386081;19;20328;-78
2021/11/02 10:33:21;;;;;;;2.47;2.28;;;10.90;99.90;;;;;;7294094;19;2008160;-82
2021/11/02 10:36:16;;;;;;;2.20;2.10;;;10.90;99.90;;;;;;7392227;19;20909;-77
2021/11/02 10:38:55;;;;;;;3.17;2.85;;;10.90;99.90;;;;;;7286978;19;2004378;-79
2021/11/02 10:41:25;;;;;;;3.55;3.08;;;11.00;99.90;;;;;;7386912;19;21151;-78
2021/11/02 10:44:02;;;;;;;3.28;2.60;;;11.00;99.90;;;;;;7387661;19;20374;-78
2021/11/02 10:46:32;;;;;;;3.50;3.15;;;11.10;99.90;;;;;;7386834;19;20936;-78
2021/11/02 10:49:08;;;;;;;3.67;3.38;;;11.10;99.90;;;;;;7387880;19;20317;-78
2021/11/02 10:51:47;;;;;;;7.72;5.75;;;11.10;99.90;;;;;;7283102;19;2020193;-78
2021/11/02 10:54:16;;;;;;;5.05;3.00;;;11.10;99.90;;;;;;7283341;19;2019955;-78
2021/11/02 10:57:04;;;;;;;4.32;3.65;;;11.10;99.90;;;;;;7389172;19;20312;-80
2021/11/02 10:59:30;;;;;;;4.68;3.78;;;11.10;99.90;;;;;;7264384;19;2004398;-82
2021/11/02 11:01:56;;;;;;;5.47;2.88;;;11.10;99.90;;;;;;7386860;19;20642;-79
2021/11/02 11:04:22;;;;;;;3.13;2.58;;;11.10;99.90;;;;;;7385009;19;20416;-82
2021/11/02 11:06:49;;;;;;;3.27;2.60;;;11.20;99.90;;;;;;7389535;19;20320;-78
2021/11/02 11:09:14;;;;;;;2.70;2.50;;;11.20;99.90;;;;;;7384827;19;20468;-79
2021/11/02 11:11:45;;;;;;;3.20;2.90;;;11.20;99.90;;;;;;7381694;19;20348;-78
2021/11/02 11:14:15;;;;;;;3.03;2.72;;;11.10;99.90;;;;;;7384471;19;20404;-76
2021/11/02 11:16:46;;;;;;;3.22;2.92;;;11.30;99.90;;;;;;7388972;19;20332;-80
2021/11/02 11:19:27;;;;;;;3.25;2.95;;;11.40;99.90;;;;;;7388400;19;20331;-80
2021/11/02 11:21:53;;;;;;;3.38;3.08;;;11.30;99.90;;;;;;7387472;19;20336;-79
2021/11/02 11:24:42;;;;;;;2.95;2.50;;;11.30;99.90;;;;;;7387784;19;20887;-80
2021/11/02 11:27:08;;;;;;;3.38;2.60;;;11.30;99.90;;;;;;7387415;19;20690;-80
2021/11/02 11:29:35;;;;;;;2.65;2.42;;;11.40;99.90;;;;;;7387671;19;20312;-81
2021/11/02 11:32:00;;;;;;;3.08;2.53;;;11.50;99.90;;;;;;7387888;19;20329;-80
2021/11/02 11:34:34;;;;;;;2.67;2.47;;;11.50;99.90;;;;;;7388604;19;20317;-81
2021/11/02 11:37:06;;;;;;;2.30;2.20;;;11.50;99.90;;;;;;7387766;19;20417;-79
2021/11/02 11:39:35;;;;;;;2.83;2.63;;;11.40;99.90;;;;;;7386681;19;20747;-79
2021/11/02 11:42:01;;;;;;;2.43;2.23;;;11.40;99.90;;;;;;7384922;19;20312;-80
2021/11/02 11:44:26;;;;;;;2.53;2.33;;;11.30;99.90;;;;;;7387419;19;20312;-80
2021/11/02 11:47:08;;;;;;;2.40;2.20;;;11.30;99.90;;;;;;7389375;19;20340;-80
2021/11/02 11:49:34;;;;;;;2.20;2.00;;;11.40;99.90;;;;;;7405654;19;20341;-81
2021/11/02 11:52:00;;;;;;;1.90;1.80;;;11.30;99.90;;;;;;7396318;19;20845;-79
2021/11/02 11:54:45;;;;;;;2.00;1.90;;;11.30;99.90;;;;;;7394278;19;20305;-80
2021/11/02 11:57:31;;;;;;;2.47;2.28;;;11.40;99.90;;;;;;7289290;19;2010292;-81
2021/11/02 12:00:00;;;;;;;3.22;2.40;;;11.50;99.90;;;;;;7285907;19;2019916;-79
2021/11/02 12:02:41;;;;;;;3.20;1.90;;;11.40;99.90;;;;;;7388484;19;20331;-80
2021/11/02 12:05:17;;;;;;;2.83;2.53;;;11.30;99.90;;;;;;7284551;19;2004582;-79
2021/11/02 12:08:15;;;;;;;2.25;2.13;;;11.20;99.90;;;;;;7284626;19;2004445;-79
2021/11/02 12:10:42;;;;;;;2.38;2.17;;;11.20;99.90;;;;;;7281909;19;2019845;-79
2021/11/02 12:13:12;;;;;;;2.67;2.10;;;11.20;99.90;;;;;;7385398;19;20344;-79
2021/11/02 12:15:59;;;;;;;2.70;2.22;;;11.20;99.90;;;;;;7386388;19;20317;-80
2021/11/02 12:18:29;;;;;;;1.90;1.80;;;11.20;99.90;;;;;;7385642;19;20762;-80
2021/11/02 12:20:55;;;;;;;2.67;2.30;;;11.20;99.90;;;;;;7363003;19;20311;-80
2021/11/02 12:23:45;;;;;;;2.50;2.30;;;11.20;99.90;;;;;;7386169;19;20334;-80
2021/11/02 12:26:12;;;;;;;1.90;1.80;;;11.30;99.90;;;;;;7287694;19;2009154;-79
2021/11/02 12:28:41;;;;;;;2.13;2.00;;;11.30;99.90;;;;;;7391161;19;20326;-82
2021/11/02 12:31:09;;;;;;;2.70;2.42;;;11.30;99.90;;;;;;7391572;19;20316;-79
2021/11/02 12:33:36;;;;;;;4.30;2.38;;;11.30;99.90;;;;;;7391869;19;20895;-79
2021/11/02 12:36:05;;;;;;;2.58;2.38;;;11.30;99.90;;;;;;7392286;19;20313;-79
2021/11/02 12:38:40;;;;;;;2.00;1.90;;;11.20;99.90;;;;;;7390687;19;20670;-78
2021/11/02 12:41:23;;;;;;;2.30;2.10;;;11.30;99.90;;;;;;7388141;19;20333;-78
2021/11/02 12:44:25;;;;;;;2.33;2.13;;;11.40;99.90;;;;;;7390095;19;20308;-79
2021/11/02 12:47:03;;;;;;;2.28;2.08;;;11.30;99.90;;;;;;7287126;19;2005096;-78
2021/11/02 12:50:21;;;;;;;2.35;2.22;;;11.20;99.90;;;;;;7391082;19;20353;-79
2021/11/02 12:53:01;;;;;;;2.40;2.20;;;11.30;99.90;;;;;;7231606;19;2004440;-78
2021/11/02 12:55:31;;;;;;;3.97;3.13;;;11.30;99.90;;;;;;7389315;19;20301;-80
2021/11/02 12:58:24;;;;;;;2.50;2.30;;;11.30;99.90;;;;;;7390226;19;20959;-80
2021/11/02 13:00:53;;;;;;;2.50;2.10;;;11.20;99.90;;;;;;7288964;19;2004559;-79
2021/11/02 13:04:26;;;;;;;2.80;2.60;;;11.20;99.90;;;;;;7372887;19;20323;-79
2021/11/02 13:07:19;;;;;;;2.45;2.25;;;11.10;99.90;;;;;;7188817;19;2004582;-81
2021/11/02 13:09:48;;;;;;;2.20;2.00;;;10.90;99.90;;;;;;7386811;19;20308;-79
2021/11/02 13:12:18;;;;;;;2.92;2.38;;;11.00;99.90;;;;;;7322859;19;20693;-79
2021/11/02 13:14:51;;;;;;;2.20;2.10;;;10.90;99.90;;;;;;7389436;19;20912;-79
2021/11/02 13:17:23;;;;;;;2.58;2.30;;;11.00;99.90;;;;;;7386459;19;20329;-79
2021/11/02 13:21:06;;;;;;;3.00;2.23;;;11.00;99.90;;;;;;7390477;19;20321;-79
2021/11/02 13:24:07;;;;;;;2.10;2.00;;;10.90;99.90;;;;;;7286855;19;2004568;-79
2021/11/02 13:26:42;;;;;;;2.60;2.40;;;11.00;99.90;;;;;;7389418;19;20315;-79
2021/11/02 13:29:21;;;;;;;2.00;1.90;;;11.10;99.90;;;;;;7389927;19;20317;-79
2021/11/02 13:31:53;;;;;;;3.97;2.13;;;11.10;99.90;;;;;;7282941;19;2004783;-79
2021/11/02 13:34:43;;;;;;;2.40;2.03;;;11.10;99.90;;;;;;7385797;19;20307;-79
2021/11/02 13:37:11;;;;;;;2.00;1.90;;;11.10;99.90;;;;;;7364706;19;20297;-78
2021/11/02 13:40:11;;;;;;;1.98;1.88;;;11.10;99.90;;;;;;7388378;19;20844;-80
2021/11/02 13:42:51;;;;;;;2.13;1.95;;;11.10;99.90;;;;;;7174813;19;2004622;-79
2021/11/02 13:45:35;;;;;;;2.10;1.90;;;11.10;99.90;;;;;;7386995;19;20314;-79
2021/11/02 13:48:04;;;;;;;1.80;1.70;;;11.10;99.90;;;;;;7389088;19;20336;-79
2021/11/02 13:50:29;;;;;;;2.97;1.95;;;11.10;99.90;;;;;;7389194;19;20312;-79
2021/11/02 13:52:56;;;;;;;3.28;1.90;;;11.10;99.90;;;;;;7388475;19;20320;-80
2021/11/02 13:55:22;;;;;;;3.75;2.05;;;11.10;99.90;;;;;;7389497;19;20380;-80
2021/11/02 13:57:48;;;;;;;2.10;2.00;;;11.10;99.90;;;;;;7389057;19;20411;-80
2021/11/02 14:00:14;;;;;;;1.90;1.80;;;11.10;99.90;;;;;;7366596;19;20341;-81
2021/11/02 14:02:40;;;;;;;1.70;1.60;;;11.20;99.90;;;;;;7389725;19;20311;-80
2021/11/02 14:05:05;;;;;;;2.10;2.00;;;11.20;99.90;;;;;;7389262;19;20317;-80
2021/11/02 14:07:31;;;;;;;2.35;2.15;;;11.30;99.90;;;;;;7388497;19;20416;-80
2021/11/02 14:10:07;;;;;;;2.10;1.87;;;11.30;99.90;;;;;;7390012;19;20297;-83
2021/11/02 14:12:41;;;;;;;2.03;1.93;;;11.20;99.90;;;;;;7391142;19;20383;-80
2021/11/02 14:15:09;;;;;;;2.13;2.03;;;11.30;99.90;;;;;;7397386;19;20347;-84
2021/11/02 14:17:35;;;;;;;2.33;2.15;;;11.20;99.90;;;;;;7397556;19;20365;-82
2021/11/02 14:20:01;;;;;;;2.42;2.22;;;11.30;99.90;;;;;;7397174;19;20671;-82
2021/11/02 14:22:47;;;;;;;1.70;1.60;;;11.20;99.90;;;;;;7390431;19;20336;-81
2021/11/02 14:25:20;;;;;;;1.80;1.70;;;11.30;99.90;;;;;;7287609;19;2008957;-84
2021/11/02 14:27:47;;;;;;;1.88;1.77;;;11.30;99.90;;;;;;7388207;19;20972;-81
2021/11/02 14:30:23;;;;;;;1.80;1.70;;;11.40;99.90;;;;;;7389867;19;20370;-82
2021/11/02 14:32:52;;;;;;;4.38;2.85;;;11.40;99.90;;;;;;7391989;19;20337;-80
2021/11/02 14:35:38;;;;;;;2.00;1.90;;;11.40;99.90;;;;;;7390011;19;20406;-81
2021/11/02 14:38:24;;;;;;;1.50;1.40;;;11.40;99.90;;;;;;7390027;19;20305;-81
2021/11/02 14:40:55;;;;;;;2.17;2.03;;;11.40;99.90;;;;;;7382220;19;20686;-81
2021/11/02 14:43:28;;;;;;;1.30;1.30;;;11.30;99.90;;;;;;7390413;19;20403;-80
2021/11/02 14:46:03;;;;;;;1.90;1.80;;;11.30;99.90;;;;;;7389511;19;20370;-80
2021/11/02 14:48:32;;;;;;;2.58;2.05;;;11.40;99.90;;;;;;7387659;19;20289;-81
2021/11/02 14:50:58;;;;;;;1.70;1.60;;;11.30;99.90;;;;;;7390778;19;20323;-79
2021/11/02 14:53:30;;;;;;;1.70;1.60;;;11.20;99.90;;;;;;7391841;19;20344;-80
2021/11/02 14:55:59;;;;;;;1.50;1.40;;;11.30;99.90;;;;;;7394836;19;20874;-80
2021/11/02 14:58:40;;;;;;;1.63;1.52;;;11.30;99.90;;;;;;7390497;19;20885;-81
2021/11/02 15:01:16;;;;;;;1.45;1.35;;;11.50;99.90;;;;;;7391857;19;20408;-78
2021/11/02 15:03:42;;;;;;;1.70;1.52;;;11.50;99.90;;;;;;7390329;19;20333;-81
2021/11/02 15:06:09;;;;;;;1.60;1.50;;;11.60;99.90;;;;;;7392972;19;20387;-80
2021/11/02 15:08:36;;;;;;;1.20;1.20;;;11.50;99.90;;;;;;7394606;19;20872;-81
2021/11/02 15:11:15;;;;;;;1.60;1.50;;;11.60;99.90;;;;;;7392824;19;20311;-81
2021/11/02 15:13:48;;;;;;;1.65;1.55;;;11.60;99.90;;;;;;7394210;19;20300;-80
2021/11/02 15:16:14;;;;;;;1.60;1.50;;;11.60;99.90;;;;;;7392514;19;20309;-84
2021/11/02 15:18:44;;;;;;;1.40;1.30;;;11.60;99.90;;;;;;7393433;19;20320;-80
2021/11/02 15:21:11;;;;;;;1.40;1.30;;;11.70;99.90;;;;;;7391131;19;20345;-80
2021/11/02 15:23:39;;;;;;;1.50;1.40;;;11.70;99.90;;;;;;7395151;19;20338;-81
2021/11/02 15:26:04;;;;;;;1.42;1.33;;;11.70;99.90;;;;;;7394442;19;20331;-81
2021/11/02 15:28:40;;;;;;;1.55;1.45;;;11.70;99.90;;;;;;7401409;19;20414;-81
2021/11/02 15:31:06;;;;;;;1.47;1.37;;;11.60;99.90;;;;;;7406503;19;20348;-79
2021/11/02 15:33:33;;;;;;;1.48;1.38;;;11.60;99.90;;;;;;7403796;19;20343;-83
2021/11/02 15:36:19;;;;;;;1.50;1.30;;;11.50;99.90;;;;;;7397578;19;20459;-80
2021/11/02 15:38:59;;;;;;;1.45;1.35;;;11.40;99.90;;;;;;7293019;19;2006032;-80
2021/11/02 15:41:26;;;;;;;1.52;1.42;;;11.40;99.90;;;;;;7291285;19;2008165;-82
2021/11/02 15:43:59;;;;;;;3.87;1.50;;;11.20;99.90;;;;;;7393113;19;20336;-80
2021/11/02 15:46:36;;;;;;;1.52;1.42;;;11.20;99.90;;;;;;7389842;19;20304;-79
2021/11/02 15:49:04;;;;;;;1.60;1.30;;;11.10;99.90;;;;;;7387520;19;20324;-80
2021/11/02 15:51:33;;;;;;;2.20;1.52;;;11.00;99.90;;;;;;7387049;19;20320;-80
2021/11/02 15:54:00;;;;;;;1.45;1.35;;;10.90;99.90;;;;;;7388065;19;20319;-81
2021/11/02 15:56:26;;;;;;;1.58;1.40;;;10.80;99.90;;;;;;7391486;19;20333;-79
2021/11/02 15:59:02;;;;;;;1.38;1.30;;;10.80;99.90;;;;;;7389709;19;20324;-80
2021/11/02 16:01:32;;;;;;;1.30;1.30;;;10.70;99.90;;;;;;7396280;19;21209;-81
2021/11/02 16:04:21;;;;;;;1.50;1.38;;;10.60;99.90;;;;;;7392664;19;20309;-80
2021/11/02 16:07:26;;;;;;;1.33;1.30;;;10.60;99.90;;;;;;7287668;19;2004401;-79
2021/11/02 16:09:56;;;;;;;1.50;1.40;;;10.40;99.90;;;;;;7387577;19;20304;-81
2021/11/02 16:15:34;;;;;;;1.60;1.50;;;10.10;99.90;;;;;;7373531;19;20428;-80
2021/11/02 16:18:22;;;;;;;1.70;1.40;;;10.00;99.90;;;;;;7393109;19;20984;-80
2021/11/02 16:20:48;;;;;;;1.45;1.35;;;9.90;99.90;;;;;;7290594;19;2004560;-88
2021/11/02 16:23:18;;;;;;;1.60;1.50;;;9.90;99.90;;;;;;7390969;19;20349;-80
2021/11/02 16:29:37;;;;;;;1.52;1.40;;;9.80;99.90;;;;;;7391315;19;20312;-80
2021/11/02 16:32:24;;;;;;;1.52;1.42;;;9.80;99.90;;;;;;7381163;19;21130;-80
2021/11/02 16:41:21;;;;;;;1.38;1.30;;;9.50;99.90;;;;;;7304282;19;20338;-82
2021/11/02 16:44:03;;;;;;;1.60;1.50;;;9.50;99.90;;;;;;7400517;19;20301;-80
2021/11/02 16:46:33;;;;;;;1.88;1.77;;;9.40;99.90;;;;;;7292507;19;2004365;-80
2021/11/02 16:49:06;;;;;;;1.52;1.42;;;9.40;99.90;;;;;;7381358;19;20360;-78
2021/11/02 16:51:50;;;;;;;3.25;2.95;;;9.30;99.90;;;;;;7385245;19;20333;-79
2021/11/02 16:54:19;;;;;;;2.90;2.20;;;9.30;99.90;;;;;;7383795;19;21181;-79
2021/11/02 16:57:05;;;;;;;2.00;1.90;;;9.20;99.90;;;;;;7386068;19;20742;-78
2021/11/02 16:59:40;;;;;;;2.00;1.90;;;9.10;99.90;;;;;;7383899;19;20336;-79
2021/11/02 17:02:15;;;;;;;2.40;2.20;;;9.10;99.90;;;;;;7383288;19;20324;-78
2021/11/02 17:05:04;;;;;;;2.20;2.10;;;9.10;99.90;;;;;;7383232;19;20388;-79
2021/11/02 17:07:58;;;;;;;2.17;2.03;;;9.00;99.90;;;;;;7280648;19;2008680;-78
2021/11/02 17:10:24;;;;;;;2.30;2.10;;;9.00;99.90;;;;;;7278397;19;2004469;-79
2021/11/02 17:13:07;;;;;;;2.10;1.90;;;9.00;99.90;;;;;;7382121;19;20329;-78
2021/11/02 17:15:33;;;;;;;2.30;2.10;;;8.90;99.90;;;;;;7383270;19;20369;-79
2021/11/02 17:17:59;;;;;;;2.10;1.90;;;8.80;99.90;;;;;;7383802;19;20364;-79
2021/11/02 17:20:25;;;;;;;2.05;1.95;;;8.70;99.90;;;;;;7381852;19;20842;-78
2021/11/02 17:22:51;;;;;;;2.10;1.88;;;8.70;99.90;;;;;;7381883;19;20938;-79
2021/11/02 17:25:18;;;;;;;1.87;1.77;;;8.70;99.90;;;;;;7384291;19;20404;-78
2021/11/02 17:27:46;;;;;;;1.60;1.50;;;8.70;99.90;;;;;;7382036;19;20308;-78
2021/11/02 17:30:22;;;;;;;1.90;1.80;;;8.70;99.90;;;;;;7382881;19;20388;-78
2021/11/02 17:32:47;;;;;;;1.95;1.65;;;8.60;99.90;;;;;;7384282;19;20344;-78
2021/11/02 17:35:15;;;;;;;1.75;1.65;;;8.60;99.90;;;;;;7380720;19;20332;-78
2021/11/02 17:37:41;;;;;;;1.27;1.25;;;8.60;99.90;;;;;;7382530;19;20411;-78
2021/11/02 17:40:07;;;;;;;1.63;1.52;;;8.60;99.90;;;;;;7383923;19;20874;-79
2021/11/02 17:42:33;;;;;;;2.53;1.98;;;8.60;99.90;;;;;;7381932;19;20292;-78
2021/11/02 17:44:58;;;;;;;2.37;1.90;;;8.60;99.90;;;;;;7382579;19;20337;-78
2021/11/02 17:47:24;;;;;;;1.83;1.73;;;8.50;99.90;;;;;;7384205;19;20390;-78
2021/11/02 17:49:50;;;;;;;1.83;1.70;;;8.50;99.90;;;;;;7379169;19;20362;-78
2021/11/02 17:52:16;;;;;;;1.70;1.60;;;8.50;99.90;;;;;;7383709;19;20313;-78
2021/11/02 17:54:42;;;;;;;1.92;1.60;;;8.50;99.90;;;;;;7384590;19;20301;-78
2021/11/02 17:57:08;;;;;;;2.17;2.07;;;8.50;99.90;;;;;;7383390;19;20317;-77
2021/11/02 17:59:34;;;;;;;3.15;2.83;;;8.50;99.90;;;;;;7383665;19;20470;-78
2021/11/02 18:02:03;;;;;;;22.13;17.70;;;8.50;99.90;;;;;;7383643;19;20325;-78
2021/11/02 18:04:29;;;;;;;6.90;5.90;;;8.40;99.90;;;;;;7383505;19;20392;-78
2021/11/02 18:06:55;;;;;;;5.10;4.60;;;8.40;99.90;;;;;;7381474;19;20332;-78
2021/11/02 18:09:21;;;;;;;6.43;4.87;;;8.40;99.90;;;;;;7381637;19;20312;-78
2021/11/02 18:11:47;;;;;;;3.80;3.50;;;8.40;99.90;;;;;;7379576;19;20312;-78
2021/11/02 18:14:13;;;;;;;3.53;3.22;;;8.40;99.90;;;;;;7380144;19;20335;-78
2021/11/02 18:16:38;;;;;;;2.53;2.33;;;8.40;99.90;;;;;;7380305;19;20346;-78
2021/11/02 18:19:05;;;;;;;4.20;3.80;;;8.40;99.90;;;;;;7382204;19;20316;-78
2021/11/02 18:21:31;;;;;;;2.70;2.50;;;8.40;99.90;;;;;;7382716;19;20341;-78
2021/11/02 18:23:57;;;;;;;3.20;2.90;;;8.40;99.90;;;;;;7383140;19;20425;-78